Messages - map view · info · telemetry · weather · raw · status · beacons · messages · bulletins · browse · moving · my account
Callsign:
Show:

Loading message packets...

APRS messages are stored for 14 days. It is possible to search using wildcards (*?) after a prefix.

2019-04-25 10:03:37 EDT: WSGFDH>BOMWSG: West and South Gippsland Fire Danger Rating: HIGH
2019-04-25 10:03:37 EDT: EGLFDL>BOMEGL: East Gippsland Fire Danger Rating: LOW-MODERATE
2019-04-25 10:03:48 EDT: G0RSQ>G4FKH: A,-92.7,-105.9,-107.2,B,-91.2,-98.7,-100,C,-90.8,-112.6,-113.7,D,-102,-103.3,-104.4,E,-105.1,-113,-114.3
2019-04-25 10:03:53 EDT: WLNK-1>KB3PCY-9: You have 3 Winlink mail messages pending
2019-04-25 10:03:55 EDT: JO1MVU-15>WXBOT: RJTY
2019-04-25 10:04:00 EDT: DB0LUH-1>LU1HVK-1: rejUISS54}
2019-04-25 10:04:02 EDT: WXBOT>JO1MVU-15: RJTY 251256Z AUTO 15004KT 10SM SCT040 20/17 A2968 RMK AO2 SLP050 T0
2019-04-25 10:04:03 EDT: N7QME-15>N7QME: 13.13 it 51 h 54 t1 54 h 51 t2 49 h 61 o 45.0 1100 0110
2019-04-25 10:04:07 EDT: WXBOT>JO1MVU-15: 2000168 FZRANO $
2019-04-25 10:04:09 EDT: CD3IRV-7>EMAIL-2: carlos@dar2.cl test
2019-04-25 10:04:09 EDT: EMAIL-2>CD3IRV-7: Email sent to carlos@dar2.cl
2019-04-25 10:04:10 EDT: VK2GJ-2>VK2GJ-7: Directs=VK2RHR-1 VK2AMW-1
2019-04-25 10:04:15 EDT: WN3F-7>SMSGTE: @2024419000 ta
2019-04-25 10:04:46 EDT: KJ4ERJ-E2>KJ4ERJ-AP: Bad temperature CRCs after 666 good (246~=121) on pin 6 index 1 from:9(153 1 75 70 126 255 7 16 121)
2019-04-25 10:04:47 EDT: KJ4ERJ-E2>KJ4ERJ-AP: CRC Restored after 2 bad (34==34) on pin 6 index 1 from:9(152 1 75 70 127 255 8 16 34)
2019-04-25 10:04:54 EDT: WLNK-1>KB3PCY-9: You have 3 Winlink mail messages pending
2019-04-25 10:04:56 EDT: JO1MVU-15>WXBOT: RJTY
2019-04-25 10:05:02 EDT: WXBOT>JO1MVU-15: RJTY 251256Z AUTO 15004KT 10SM SCT040 20/17 A2968 RMK AO2 SLP050 T0
2019-04-25 10:05:07 EDT: WXBOT>JO1MVU-15: 2000168 FZRANO $
2019-04-25 10:05:09 EDT: DL7ATA>DB0TGO-14: /m
2019-04-25 10:05:09 EDT: EMAIL-2>CD3IRV-7: Email sent to carlos@dar2.cl
2019-04-25 10:05:13 EDT: CD3IRV-7>EMAIL-2: carlos@dar2.cl test
2019-04-25 10:05:16 EDT: WN3F-7>SMSGTE: @2024419000 ta
2019-04-25 10:05:36 EDT: DL7ATA>DB0TGO-14: /m
2019-04-25 10:05:56 EDT: JO1MVU-15>WXBOT: RJTY
2019-04-25 10:06:01 EDT: DO6GZ-9>DB1NTO-2: PicoAPRS Check Update Version013
2019-04-25 10:06:02 EDT: WXBOT>JO1MVU-15: RJTY 251256Z AUTO 15004KT 10SM SCT040 20/17 A2968 RMK AO2 SLP050 T0
2019-04-25 10:06:05 EDT: DL7ATA>DB0TGO-14: /p
2019-04-25 10:06:07 EDT: WXBOT>JO1MVU-15: 2000168 FZRANO $
2019-04-25 10:06:09 EDT: EMAIL-2>CD3IRV-7: Email sent to carlos@dar2.cl
2019-04-25 10:06:16 EDT: CD3IRV-7>EMAIL-2: carlos@dar2.cl test
2019-04-25 10:06:37 EDT: DL7ATA>DB0TGO-14: /p
2019-04-25 10:06:54 EDT: WLNK-1>KB3PCY-9: You have 3 Winlink mail messages pending
2019-04-25 10:07:09 EDT: EMAIL-2>CD3IRV-7: Email sent to carlos@dar2.cl
2019-04-25 10:07:17 EDT: WN3F-7>SMSGTE: @2024419000 ta
2019-04-25 10:07:20 EDT: CD3IRV-7>EMAIL-2: carlos@dar2.cl test
2019-04-25 10:07:27 EDT: KM4KAW-9>KM4KAW: SitRep: 11.49552 63.83f
2019-04-25 10:07:32 EDT: SHLBTP>SHLBTP: Info - Cabinet Temp = 67.6F Vcc = 13.6V
2019-04-25 10:07:43 EDT: FW0690>FW0690: UPTM.21 days, 06:00:42
2019-04-25 10:07:43 EDT: DK5GN-7>DB1NTO-2: PicoAPRS Check Update Version010
2019-04-25 10:07:44 EDT: DB1NTO-2>DK5GN-7: Firmware update 013 available! Look at www.db1nto.de
2019-04-25 10:08:10 EDT: VK2GJ-2>VK2GJ-7: Directs=VK2RHR-1 VK2AMW-1 VK2BWI-3
2019-04-25 10:08:10 EDT: LOTOJASMS>KG7AFQ-10: BAKERSMS - SA
2019-04-25 10:08:18 EDT: WN3F-7>SMSGTE: @2024419000 ta
2019-04-25 10:08:20 EDT: BEAR>KG7AFQ-10: BAKERSMS - SA
2019-04-25 10:08:21 EDT: DB0TS-10>DB0TS-9: T#001,000,000,000,000,000,00000000,Test
2019-04-25 10:08:24 EDT: CD3IRV-7>EMAIL-2: carlos@dar2.cl test
2019-04-25 10:08:29 EDT: N7QME-14>N7QME: 13.13 89.6 19 9
2019-04-25 10:08:33 EDT: DK5GN-7>DB1NTO-2: PicoAPRS Check Update Version010
2019-04-25 10:08:33 EDT: DB1NTO-2>DK5GN-7: Firmware update 013 available! Look at www.db1nto.de
< previous
FAQ · Blog · Discussion group · Linking to aprs.fi · AIS sites · Service status · Database statistics · Advertising on aprs.fi · Technical details · API · Change log · Planned changes · Credits and thanks · Terms Of Service · iPhone/iPad APRS